createdAt,value
2023-03-10T00:01:49.982Z,6.61
2023-03-10T00:04:16.571Z,6.59
2023-03-10T00:06:43.187Z,6.62
2023-03-10T00:09:12.274Z,6.61
2023-03-10T00:11:38.774Z,6.59
2023-03-10T00:14:05.274Z,6.66
2023-03-10T00:16:31.796Z,6.61
2023-03-10T00:19:00.547Z,6.61
2023-03-10T00:21:28.692Z,6.61
2023-03-10T00:23:55.214Z,6.60
2023-03-10T00:26:21.929Z,6.60
2023-03-10T00:28:49.694Z,6.62
2023-03-10T00:31:17.247Z,6.70
2023-03-10T00:33:43.819Z,6.72
2023-03-10T00:36:12.007Z,6.72
2023-03-10T00:38:38.896Z,6.77
2023-03-10T00:41:07.231Z,6.74
2023-03-10T00:43:34.504Z,6.78
2023-03-10T00:46:01.149Z,6.83
2023-03-10T00:48:28.094Z,6.82
2023-03-10T00:50:54.644Z,6.83
2023-03-10T00:53:21.225Z,6.81
2023-03-10T00:55:57.777Z,6.84
2023-03-10T00:58:24.359Z,6.83
2023-03-10T01:00:50.862Z,6.81
2023-03-10T01:03:17.351Z,6.82
2023-03-10T01:05:45.237Z,6.81
2023-03-10T01:08:11.881Z,6.82
2023-03-10T01:10:38.511Z,6.90
2023-03-10T01:13:05.034Z,6.83
2023-03-10T01:15:31.624Z,6.80
2023-03-10T01:17:58.254Z,6.84
2023-03-10T01:20:24.793Z,6.85
2023-03-10T01:22:51.288Z,6.85
2023-03-10T01:25:17.797Z,6.81
2023-03-10T01:27:44.335Z,6.86
2023-03-10T01:30:11.483Z,6.86
2023-03-10T01:32:38.559Z,6.87
2023-03-10T01:35:05.615Z,6.88
2023-03-10T01:37:32.165Z,6.90
2023-03-10T01:39:58.775Z,6.93
2023-03-10T01:42:25.248Z,6.92
2023-03-10T01:45:05.707Z,6.94
2023-03-10T01:47:32.200Z,6.94
2023-03-10T01:49:58.708Z,6.93
2023-03-10T01:52:25.683Z,6.93
2023-03-10T01:54:56.261Z,6.89
2023-03-10T01:57:24.104Z,6.90
2023-03-10T01:59:51.076Z,6.87
2023-03-10T02:02:18.125Z,6.85
2023-03-10T02:04:45.746Z,6.84
2023-03-10T02:07:12.281Z,6.84
2023-03-10T02:09:40.080Z,6.83
2023-03-10T02:12:06.939Z,6.78
2023-03-10T02:14:34.747Z,6.73
2023-03-10T02:17:01.801Z,6.68
2023-03-10T02:19:35.751Z,6.61
2023-03-10T02:22:06.188Z,6.61
2023-03-10T02:24:32.749Z,6.63
2023-03-10T02:26:59.269Z,6.69
2023-03-10T02:29:27.311Z,6.66
2023-03-10T02:31:55.481Z,6.66
2023-03-10T02:34:22.019Z,6.62
2023-03-10T02:36:48.588Z,6.62
2023-03-10T02:39:15.162Z,6.62
2023-03-10T02:41:44.242Z,6.66
2023-03-10T02:44:12.457Z,6.67
2023-03-10T02:46:39.059Z,6.73
2023-03-10T02:49:06.359Z,6.72
2023-03-10T02:51:34.041Z,6.73
2023-03-10T02:54:01.307Z,6.75
2023-03-10T02:56:28.089Z,6.79
2023-03-10T02:58:54.703Z,6.77
2023-03-10T03:01:21.273Z,6.74
2023-03-10T03:03:47.896Z,6.70
2023-03-10T03:06:14.497Z,6.53
2023-03-10T03:08:41.631Z,6.38
2023-03-10T03:11:08.666Z,6.32
2023-03-10T03:17:04.205Z,6.09
2023-03-10T03:22:58.876Z,5.91
2023-03-10T03:29:13.904Z,5.89
2023-03-10T03:38:58.773Z,5.99
2023-03-10T03:45:00.893Z,5.96
2023-03-10T03:51:01.049Z,5.96
2023-03-10T03:53:27.522Z,5.97
2023-03-10T03:55:54.177Z,6.00
2023-03-10T03:58:59.995Z,6.04
2023-03-10T04:01:26.604Z,6.07
2023-03-10T04:03:53.223Z,6.16
2023-03-10T04:06:19.888Z,6.18
2023-03-10T04:12:31.834Z,6.33
2023-03-10T04:14:58.427Z,6.39
2023-03-10T04:17:24.952Z,6.36
2023-03-10T04:20:06.274Z,6.40
2023-03-10T04:26:06.714Z,6.34
2023-03-10T04:32:09.122Z,6.27
2023-03-10T04:38:09.137Z,6.05
2023-03-10T04:44:04.064Z,6.13
2023-03-10T04:46:31.971Z,6.12
2023-03-10T04:48:58.495Z,6.18
2023-03-10T04:51:25.040Z,6.11
2023-03-10T04:54:09.835Z,6.13
2023-03-10T05:00:08.308Z,6.15
2023-03-10T05:06:48.767Z,6.12
2023-03-10T05:13:18.784Z,6.08
2023-03-10T05:30:35.844Z,5.97
2023-03-10T05:55:36.677Z,5.92
2023-03-10T06:31:33.880Z,6.08
